Time;durP1;ratioP1;P1;durP2;ratioP2;P2;SDS_P1;SDS_P2;PMS_P1;PMS_P2;Temp;Humidity;BMP_temperature;BMP_pressure;BME280_temperature;BME280_humidity;BME280_pressure;Samples;Min_cycle;Max_cycle;Signal;HPM_P1;HPM_P2
2023/04/20 00:00:39;;;;;;;0.75;0.75;;;;;;;5.45;100.00;100927.44;7393149;19;20019;-62
2023/04/20 00:03:06;;;;;;;0.73;0.73;;;;;;;4.36;100.00;100934.13;7393717;19;20022;-62
2023/04/20 00:05:32;;;;;;;0.50;0.50;;;;;;;3.79;100.00;100931.78;7393423;19;20330;-61
2023/04/20 00:07:58;;;;;;;1.00;0.95;;;;;;;5.42;100.00;100928.25;7393743;19;20010;-61
2023/04/20 00:10:24;;;;;;;0.80;0.80;;;;;;;5.20;100.00;100926.94;7397405;19;20030;-62
2023/04/20 00:12:51;;;;;;;1.38;1.27;;;;;;;4.25;100.00;100922.38;7394344;19;20479;-62
2023/04/20 00:15:17;;;;;;;1.45;0.73;;;;;;;4.49;100.00;100933.22;7393112;19;20010;-62
2023/04/20 00:17:44;;;;;;;1.08;1.08;;;;;;;4.46;100.00;100922.22;7394010;19;20010;-61
2023/04/20 00:20:11;;;;;;;0.40;0.40;;;;;;;4.83;100.00;100929.75;7397116;19;20015;-62
2023/04/20 00:22:37;;;;;;;1.58;1.48;;;;;;;12.11;100.00;100913.22;7393101;19;20014;-62
2023/04/20 00:25:03;;;;;;;0.52;0.52;;;;;;;4.43;100.00;100929.34;7393066;19;20018;-62
2023/04/20 00:27:29;;;;;;;2.38;1.25;;;;;;;3.79;100.00;100928.22;7393427;19;20070;-62
2023/04/20 00:29:56;;;;;;;1.55;1.23;;;;;;;3.52;100.00;100924.47;7394048;19;20011;-62
2023/04/20 00:32:22;;;;;;;2.03;0.85;;;;;;;3.67;100.00;100923.22;7388822;19;20036;-62
2023/04/20 00:34:49;;;;;;;1.70;1.60;;;;;;;7.11;100.00;100919.97;7390527;19;20014;-62
2023/04/20 00:37:16;;;;;;;0.82;0.82;;;;;;;4.85;100.00;100924.59;7392296;19;20345;-62
2023/04/20 00:39:42;;;;;;;1.05;1.00;;;;;;;6.70;100.00;100911.25;7395646;19;20329;-62
2023/04/20 00:42:08;;;;;;;1.50;1.05;;;;;;;5.44;100.00;100920.31;7392544;19;20424;-62
2023/04/20 00:44:34;;;;;;;1.27;1.17;;;;;;;4.18;100.00;100923.22;7390406;19;20015;-62
2023/04/20 00:47:00;;;;;;;0.75;0.75;;;;;;;4.55;100.00;100920.53;7392541;19;20010;-62
2023/04/20 00:49:29;;;;;;;1.48;1.33;;;;;;;4.32;100.00;100917.63;7392987;19;20021;-62
2023/04/20 00:51:57;;;;;;;1.27;1.20;;;;;;;4.73;100.00;100911.31;7389418;19;20406;-62
2023/04/20 00:54:25;;;;;;;0.95;0.93;;;;;;;6.82;100.00;100905.13;7392689;19;20040;-62
2023/04/20 00:56:53;;;;;;;1.17;0.90;;;;;;;3.92;100.00;100912.78;7390570;19;20011;-62
2023/04/20 00:59:20;;;;;;;5.38;1.13;;;;;;;3.80;100.00;100913.28;7393002;19;20010;-62
2023/04/20 01:01:47;;;;;;;1.20;1.10;;;;;;;4.50;100.00;100907.19;7390363;19;20011;-62
2023/04/20 01:04:15;;;;;;;1.35;1.30;;;;;;;5.02;100.00;100898.78;7399416;19;20074;-62
2023/04/20 01:06:41;;;;;;;1.40;1.17;;;;;;;5.01;100.00;100902.72;7398165;19;20022;-62
2023/04/20 01:09:09;;;;;;;4.05;1.38;;;;;;;7.36;100.00;100897.28;7400566;19;20366;-62
2023/04/20 01:11:35;;;;;;;2.80;1.35;;;;;;;4.41;100.00;100904.16;7397577;19;20006;-62
2023/04/20 01:14:01;;;;;;;3.63;1.58;;;;;;;3.44;100.00;100900.91;7398265;19;20456;-62
2023/04/20 01:16:30;;;;;;;1.45;1.35;;;;;;;3.95;100.00;100903.72;7397081;19;20014;-62
2023/04/20 01:18:57;;;;;;;2.47;1.10;;;;;;;3.33;100.00;100900.19;7400025;19;20464;-62
2023/04/20 01:21:23;;;;;;;3.22;1.67;;;;;;;3.06;100.00;100897.16;7398780;19;20010;-62
2023/04/20 01:23:49;;;;;;;1.15;0.90;;;;;;;3.11;100.00;100901.47;7398429;19;20011;-62
2023/04/20 01:26:17;;;;;;;1.00;0.82;;;;;;;3.08;100.00;100900.28;7395736;19;20401;-62
2023/04/20 01:28:44;;;;;;;0.70;0.70;;;;;;;3.16;100.00;100890.06;7397991;19;20006;-62
2023/04/20 01:31:11;;;;;;;3.55;1.17;;;;;;;3.08;100.00;100892.81;7398566;19;20010;-62
2023/04/20 01:33:37;;;;;;;3.30;1.65;;;;;;;9.53;100.00;100878.22;7397478;19;20006;-62
2023/04/20 01:36:05;;;;;;;2.90;1.52;;;;;;;4.55;100.00;100886.66;7398930;19;20010;-62
2023/04/20 01:38:33;;;;;;;0.93;0.75;;;;;;;3.54;100.00;100895.34;7397047;19;20007;-62
2023/04/20 01:41:03;;;;;;;6.30;1.10;;;;;;;3.24;100.00;100886.06;7399042;19;20040;-62
2023/04/20 01:43:29;;;;;;;0.90;0.85;;;;;;;3.08;100.00;100890.06;7396310;19;20021;-62
2023/04/20 01:45:55;;;;;;;1.27;1.23;;;;;;;11.45;100.00;100858.03;7398263;19;20006;-62
2023/04/20 01:48:22;;;;;;;14.48;1.60;;;;;;;16.40;91.22;100853.81;7397881;19;20014;-62
2023/04/20 01:50:51;;;;;;;0.73;0.73;;;;;;;17.96;73.40;100851.31;7396066;19;20015;-62
2023/04/20 01:53:18;;;;;;;0.90;0.90;;;;;;;18.64;67.35;100850.44;7396335;19;20039;-62
2023/04/20 01:55:47;;;;;;;3.17;1.33;;;;;;;19.14;63.25;100848.50;7395842;19;20021;-63
2023/04/20 01:58:13;;;;;;;1.27;1.27;;;;;;;19.20;60.48;100842.88;7397975;19;20035;-63
2023/04/20 02:00:39;;;;;;;0.95;0.95;;;;;;;19.28;58.91;100844.66;7395843;19;20019;-62
2023/04/20 02:03:06;;;;;;;0.70;0.65;;;;;;;19.29;57.03;100837.75;7395436;19;20068;-62
2023/04/20 02:05:32;;;;;;;5.10;1.35;;;;;;;19.07;55.86;100846.19;7395655;19;20070;-63
2023/04/20 02:07:58;;;;;;;3.30;1.35;;;;;;;19.12;54.98;100848.25;7397422;19;20015;-62
2023/04/20 02:10:24;;;;;;;1.02;1.02;;;;;;;19.18;55.03;100842.59;7399832;19;20464;-63
2023/04/20 02:12:50;;;;;;;8.00;2.00;;;;;;;19.20;54.34;100845.69;7393417;19;20010;-63
2023/04/20 02:15:16;;;;;;;1.50;1.42;;;;;;;19.18;54.51;100845.44;7394153;19;20078;-62
2023/04/20 02:17:43;;;;;;;2.85;1.52;;;;;;;19.17;53.64;100843.88;7397376;19;20011;-62
2023/04/20 02:20:10;;;;;;;1.10;1.10;;;;;;;19.29;53.29;100840.56;7399255;19;20015;-62
2023/04/20 02:22:37;;;;;;;1.48;1.38;;;;;;;7.14;100.00;100862.94;7394931;19;20053;-62
2023/04/20 02:25:04;;;;;;;3.15;1.58;;;;;;;4.83;100.00;100860.75;7396629;19;20493;-62
2023/04/20 02:27:31;;;;;;;1.27;1.25;;;;;;;6.34;100.00;100860.53;7396508;19;20007;-63
2023/04/20 02:29:58;;;;;;;2.75;1.90;;;;;;;5.20;100.00;100866.97;7398476;19;20014;-62
2023/04/20 02:32:25;;;;;;;2.65;2.00;;;;;;;4.37;100.00;100862.03;7394082;19;20006;-62
2023/04/20 02:34:51;;;;;;;5.28;2.80;;;;;;;4.20;100.00;100854.69;7395266;19;20018;-62
2023/04/20 02:37:17;;;;;;;1.67;1.60;;;;;;;3.71;100.00;100853.13;7394839;19;20018;-62
2023/04/20 02:39:43;;;;;;;1.25;1.08;;;;;;;4.41;100.00;100846.22;7397360;19;20468;-62
2023/04/20 02:42:10;;;;;;;1.25;1.15;;;;;;;3.60;100.00;100860.69;7396510;19;20010;-62
2023/04/20 02:44:36;;;;;;;0.70;0.70;;;;;;;3.58;100.00;100856.75;7394962;19;20019;-62
2023/04/20 02:47:04;;;;;;;9.23;2.67;;;;;;;4.77;100.00;100849.38;7394202;19;20003;-62
2023/04/20 02:49:30;;;;;;;1.75;1.65;;;;;;;3.52;100.00;100852.88;7397164;19;20021;-62
2023/04/20 02:51:56;;;;;;;4.05;1.85;;;;;;;3.30;100.00;100867.94;7391951;19;20070;-62
2023/04/20 02:54:23;;;;;;;1.67;1.30;;;;;;;3.27;100.00;100860.50;7397429;19;20011;-62
2023/04/20 02:56:49;;;;;;;3.33;2.20;;;;;;;3.32;100.00;100860.06;7394277;19;20043;-62
2023/04/20 02:59:16;;;;;;;2.67;1.70;;;;;;;4.34;100.00;100860.09;7396234;19;20014;-62
2023/04/20 03:01:51;;;;;;;4.15;1.70;;;;;;;4.09;100.00;100848.50;7395435;19;20146;-62
2023/04/20 03:04:20;;;;;;;3.28;1.83;;;;;;;2.97;100.00;100853.56;7394030;19;20014;-62
2023/04/20 03:06:59;;;;;;;4.68;1.92;;;;;;;2.76;100.00;100845.41;7393391;19;20474;-62
2023/04/20 03:09:28;;;;;;;23.87;3.57;;;;;;;2.84;100.00;100846.94;7396591;19;20015;-62
2023/04/20 03:12:01;;;;;;;1.08;0.93;;;;;;;2.84;100.00;100843.38;7392607;19;20014;-62
2023/04/20 03:15:06;;;;;;;0.75;0.75;;;;;;;2.87;100.00;100846.16;7390594;19;20014;-62
2023/04/20 03:17:54;;;;;;;1.77;1.67;;;;;;;4.27;100.00;100838.09;7393032;19;20018;-62
2023/04/20 03:20:21;;;;;;;3.60;2.35;;;;;;;3.01;100.00;100843.31;7397728;19;20014;-62
2023/04/20 03:22:47;;;;;;;2.90;2.20;;;;;;;2.88;100.00;100850.44;7393151;19;20018;-63
2023/04/20 03:25:14;;;;;;;9.68;1.33;;;;;;;4.07;100.00;100847.34;7392766;19;20011;-62
2023/04/20 03:27:56;;;;;;;1.35;1.35;;;;;;;3.18;100.00;100838.13;7393053;19;20460;-62
2023/04/20 03:30:24;;;;;;;3.22;1.75;;;;;;;3.29;100.00;100844.38;7397480;19;20086;-62
2023/04/20 03:32:56;;;;;;;3.30;1.27;;;;;;;3.24;100.00;100847.53;7391597;19;20006;-62
2023/04/20 03:35:22;;;;;;;2.92;2.40;;;;;;;2.56;100.00;100841.53;7393227;19;20416;-62
2023/04/20 03:37:48;;;;;;;2.97;1.90;;;;;;;2.52;100.00;100843.50;7393986;19;20512;-62
2023/04/20 03:40:14;;;;;;;3.70;1.95;;;;;;;2.86;100.00;100846.53;7398424;19;20040;-62
2023/04/20 03:42:40;;;;;;;12.68;2.22;;;;;;;2.91;100.00;100838.66;7393612;19;20011;-62
2023/04/20 03:45:07;;;;;;;3.80;1.95;;;;;;;3.01;100.00;100848.81;7392352;19;20040;-62
2023/04/20 03:47:33;;;;;;;2.30;1.65;;;;;;;3.07;100.00;100855.47;7393046;19;20011;-62
2023/04/20 03:50:00;;;;;;;3.72;1.42;;;;;;;2.95;100.00;100853.19;7396522;19;20520;-62
2023/04/20 03:52:26;;;;;;;7.75;2.45;;;;;;;3.26;100.00;100856.19;7391768;19;20018;-62
2023/04/20 03:54:52;;;;;;;4.32;2.38;;;;;;;3.20;100.00;100855.81;7395549;19;20475;-62
2023/04/20 03:57:19;;;;;;;5.15;2.15;;;;;;;2.94;100.00;100856.34;7392015;19;20019;-62
2023/04/20 03:59:45;;;;;;;1.88;1.10;;;;;;;3.05;100.00;100862.59;7396794;19;20086;-62
2023/04/20 04:02:15;;;;;;;3.72;1.10;;;;;;;2.79;100.00;100855.63;7391813;19;20314;-62
2023/04/20 04:04:44;;;;;;;1.88;0.93;;;;;;;11.15;100.00;100836.50;7391554;19;20010;-62
2023/04/20 04:07:11;;;;;;;1.70;1.60;;;;;;;16.54;93.04;100818.50;7391664;19;20014;-62
2023/04/20 04:09:39;;;;;;;7.45;2.35;;;;;;;6.07;100.00;100836.50;7394483;19;20096;-62
2023/04/20 04:12:07;;;;;;;3.15;1.58;;;;;;;3.80;100.00;100852.69;7390659;19;20086;-62
2023/04/20 04:14:34;;;;;;;4.05;1.80;;;;;;;3.31;100.00;100850.25;7391326;19;20011;-62
2023/04/20 04:17:00;;;;;;;8.60;1.63;;;;;;;3.05;100.00;100846.84;7392716;19;20017;-62
2023/04/20 04:19:28;;;;;;;4.00;1.58;;;;;;;2.86;100.00;100843.78;7394732;19;20011;-62
2023/04/20 04:21:54;;;;;;;3.08;2.20;;;;;;;2.70;100.00;100846.22;7393198;19;20015;-62
2023/04/20 04:24:20;;;;;;;4.57;1.92;;;;;;;2.65;100.00;100844.66;7391874;19;20015;-62
2023/04/20 04:26:57;;;;;;;2.83;1.38;;;;;;;3.91;100.00;100841.56;7391297;19;20349;-62
2023/04/20 04:29:24;;;;;;;2.10;1.92;;;;;;;2.83;100.00;100842.63;7393709;19;20354;-62
2023/04/20 04:31:53;;;;;;;2.75;1.30;;;;;;;2.82;100.00;100846.56;7390210;19;20375;-62
2023/04/20 04:34:19;;;;;;;1.23;1.20;;;;;;;2.74;100.00;100839.50;7390847;19;20021;-62
2023/04/20 04:36:49;;;;;;;2.92;1.00;;;;;;;2.63;100.00;100840.72;7391868;19;20011;-62
2023/04/20 04:39:21;;;;;;;;;;;;;;;2.66;100.00;100839.94;7402155;19;20015;-62
2023/04/20 04:41:56;;;;;;;2.10;1.90;;;;;;;2.65;100.00;100850.16;7397861;19;20354;-62
2023/04/20 04:44:32;;;;;;;2.25;1.35;;;;;;;2.72;100.00;100841.88;7397986;19;20026;-62
2023/04/20 04:47:02;;;;;;;0.57;0.57;;;;;;;3.08;100.00;100840.53;7398451;19;20031;-62
2023/04/20 04:49:29;;;;;;;2.33;1.95;;;;;;;2.75;100.00;100843.06;7400717;19;20014;-62
2023/04/20 04:51:55;;;;;;;1.38;1.27;;;;;;;2.88;100.00;100847.69;7397283;19;20040;-62
2023/04/20 04:54:21;;;;;;;5.15;2.28;;;;;;;6.05;100.00;100838.09;7402045;19;20046;-62
2023/04/20 04:56:48;;;;;;;2.58;1.73;;;;;;;3.47;100.00;100839.53;7398622;19;20352;-62
2023/04/20 04:59:14;;;;;;;1.98;1.77;;;;;;;3.27;100.00;100841.25;7401981;19;20017;-63
2023/04/20 05:01:40;;;;;;;3.08;1.80;;;;;;;3.04;100.00;100848.03;7398370;19;20015;-62
2023/04/20 05:04:06;;;;;;;6.25;1.20;;;;;;;3.04;100.00;100850.78;7398206;19;20014;-62
2023/04/20 05:06:32;;;;;;;1.52;1.42;;;;;;;3.04;100.00;100856.28;7398411;19;20074;-62
2023/04/20 05:08:58;;;;;;;4.43;1.75;;;;;;;3.07;100.00;100860.97;7401374;19;20104;-62
2023/04/20 05:11:24;;;;;;;5.55;1.67;;;;;;;3.03;100.00;100868.47;7398024;19;20074;-62
2023/04/20 05:13:50;;;;;;;2.67;2.35;;;;;;;3.05;100.00;100868.84;7397544;19;20010;-62
2023/04/20 05:16:17;;;;;;;3.85;2.10;;;;;;;3.08;100.00;100870.03;7398872;19;20007;-62
2023/04/20 05:18:43;;;;;;;1.85;1.48;;;;;;;3.20;100.00;100879.81;7398134;19;20027;-62
2023/04/20 05:21:10;;;;;;;7.38;3.50;;;;;;;4.39;100.00;100870.69;7399156;19;20027;-62
2023/04/20 05:23:36;;;;;;;7.43;2.22;;;;;;;3.74;100.00;100862.56;7399263;19;20040;-62
2023/04/20 05:26:02;;;;;;;5.07;2.33;;;;;;;3.96;100.00;100869.50;7398397;19;20014;-62
2023/04/20 05:28:28;;;;;;;1.52;1.13;;;;;;;4.52;100.00;100866.22;7399271;19;20050;-62
2023/04/20 05:30:54;;;;;;;5.15;1.35;;;;;;;3.70;100.00;100873.59;7397946;19;20014;-62
2023/04/20 05:33:21;;;;;;;2.47;2.28;;;;;;;17.45;100.00;100842.97;7396956;19;20007;-62
2023/04/20 05:35:47;;;;;;;1.85;1.50;;;;;;;12.21;100.00;100854.63;7398738;19;20006;-62
2023/04/20 05:38:13;;;;;;;1.13;0.88;;;;;;;17.34;97.66;100848.50;7398987;19;20040;-62
2023/04/20 05:40:40;;;;;;;1.10;1.02;;;;;;;19.07;77.68;100842.59;7397668;19;20031;-62
2023/04/20 05:43:06;;;;;;;3.25;2.22;;;;;;;8.73;100.00;100863.44;7395587;19;20047;-62
2023/04/20 05:45:33;;;;;;;1.80;1.40;;;;;;;5.63;100.00;100872.69;7398353;19;20010;-61
2023/04/20 05:47:59;;;;;;;1.55;1.45;;;;;;;13.37;100.00;100858.66;7398085;19;20036;-62
2023/04/20 05:50:26;;;;;;;1.95;1.75;;;;;;;18.71;84.51;100847.88;7402016;19;20338;-62
2023/04/20 05:52:52;;;;;;;1.58;1.50;;;;;;;19.66;72.63;100843.19;7396151;19;20010;-61
2023/04/20 05:55:19;;;;;;;1.25;1.20;;;;;;;20.01;68.73;100842.63;7402131;19;20074;-62
2023/04/20 05:57:45;;;;;;;2.08;1.42;;;;;;;20.36;65.48;100851.28;7398448;19;20021;-62
2023/04/20 06:00:14;;;;;;;2.85;1.95;;;;;;;20.84;62.54;100848.00;7401630;19;20036;-62
2023/04/20 06:02:41;;;;;;;15.70;3.53;;;;;;;21.46;58.86;100849.19;7396534;19;20039;-61
2023/04/20 06:05:08;;;;;;;3.00;1.60;;;;;;;21.44;57.63;100840.44;7396376;19;20027;-62
2023/04/20 06:07:35;;;;;;;1.70;1.20;;;;;;;21.19;57.28;100841.63;7397074;19;20471;-62
2023/04/20 06:10:03;;;;;;;6.25;1.30;;;;;;;21.28;56.17;100844.16;7400877;19;20418;-61
2023/04/20 06:12:29;;;;;;;0.93;0.93;;;;;;;21.54;54.60;100856.59;7396733;19;20011;-61
2023/04/20 06:14:56;;;;;;;7.68;2.58;;;;;;;8.60;100.00;100879.25;7397911;19;20022;-61
2023/04/20 06:17:22;;;;;;;1.73;1.42;;;;;;;6.13;100.00;100867.19;7396654;19;20070;-61
2023/04/20 06:19:48;;;;;;;1.73;1.42;;;;;;;5.55;100.00;100875.97;7399249;19;20065;-61
2023/04/20 06:22:15;;;;;;;3.35;2.08;;;;;;;5.14;100.00;100873.38;7396944;19;20021;-61
2023/04/20 06:24:42;;;;;;;2.55;1.50;;;;;;;5.05;100.00;100873.09;7396138;19;20031;-61
2023/04/20 06:27:08;;;;;;;9.57;2.20;;;;;;;5.16;100.00;100873.75;7396646;19;20014;-61
2023/04/20 06:29:35;;;;;;;5.35;1.52;;;;;;;5.15;100.00;100869.44;7399419;19;20006;-61
2023/04/20 06:32:01;;;;;;;1.88;1.73;;;;;;;4.97;100.00;100872.41;7393146;19;20022;-61
2023/04/20 06:34:27;;;;;;;4.88;2.25;;;;;;;4.99;100.00;100861.72;7396885;19;20050;-61
2023/04/20 06:36:53;;;;;;;2.78;2.33;;;;;;;5.05;100.00;100862.03;7397774;19;20401;-61
2023/04/20 06:39:20;;;;;;;8.32;1.65;;;;;;;5.12;100.00;100865.50;7397349;19;20015;-61
2023/04/20 06:41:46;;;;;;;7.97;2.35;;;;;;;5.19;100.00;100859.91;7396862;19;20042;-61
2023/04/20 06:44:13;;;;;;;3.08;1.20;;;;;;;5.23;100.00;100859.84;7395222;19;20015;-61
2023/04/20 06:46:40;;;;;;;2.35;2.05;;;;;;;5.30;100.00;100862.53;7395668;19;20011;-61
2023/04/20 06:49:06;;;;;;;2.40;1.92;;;;;;;5.39;100.00;100860.03;7397027;19;20456;-61
2023/04/20 06:51:32;;;;;;;2.88;1.90;;;;;;;5.99;100.00;100859.16;7395847;19;20468;-61
2023/04/20 06:53:58;;;;;;;4.85;1.67;;;;;;;6.79;100.00;100858.88;7397032;19;20015;-61
2023/04/20 06:56:24;;;;;;;2.08;1.95;;;;;;;6.33;100.00;100859.75;7395607;19;20351;-61
2023/04/20 06:58:50;;;;;;;2.28;2.08;;;;;;;6.63;100.00;100861.56;7397097;19;20019;-61
2023/04/20 07:01:16;;;;;;;5.78;2.70;;;;;;;6.66;100.00;100860.72;7394657;19;20057;-61
2023/04/20 07:03:45;;;;;;;5.68;1.48;;;;;;;6.48;100.00;100860.25;7393658;19;20066;-60
2023/04/20 07:06:11;;;;;;;5.43;1.98;;;;;;;6.80;100.00;100854.91;7392385;19;20015;-60
2023/04/20 07:08:38;;;;;;;1.42;1.30;;;;;;;6.13;100.00;100849.84;7395174;19;20014;-60
2023/04/20 07:11:04;;;;;;;1.55;1.45;;;;;;;6.77;100.00;100853.78;7395080;19;20010;-60
2023/04/20 07:13:31;;;;;;;7.63;2.47;;;;;;;10.96;100.00;100851.56;7394936;19;20515;-60
2023/04/20 07:15:57;;;;;;;3.05;2.85;;;;;;;23.66;67.27;100833.59;7396792;19;20039;-60
2023/04/20 07:18:23;;;;;;;1.52;1.42;;;;;;;25.59;53.66;100830.84;7394843;19;20006;-60
2023/04/20 07:20:50;;;;;;;10.82;3.25;;;;;;;26.22;47.87;100835.94;7394836;19;20025;-60
2023/04/20 07:23:16;;;;;;;4.25;1.67;;;;;;;26.96;44.44;100830.41;7394474;19;20031;-60
2023/04/20 07:25:43;;;;;;;15.70;4.35;;;;;;;27.85;41.72;100830.38;7394485;19;20389;-59
2023/04/20 07:28:09;;;;;;;1.73;1.40;;;;;;;28.68;39.00;100825.25;7392984;19;20351;-60
2023/04/20 07:30:35;;;;;;;20.38;2.63;;;;;;;29.10;37.20;100826.22;7398721;19;20369;-60
2023/04/20 07:33:01;;;;;;;11.43;1.48;;;;;;;29.23;35.62;100833.81;7391556;19;20092;-60
2023/04/20 07:35:27;;;;;;;2.95;1.88;;;;;;;29.46;34.35;100822.94;7393558;19;20022;-60
2023/04/20 07:37:54;;;;;;;10.40;2.38;;;;;;;29.51;33.99;100819.06;7394307;19;20014;-59
2023/04/20 07:40:20;;;;;;;4.25;1.60;;;;;;;29.54;33.01;100829.38;7398445;19;20079;-59
2023/04/20 07:42:46;;;;;;;6.45;2.42;;;;;;;29.65;32.43;100822.44;7392975;19;20015;-59
2023/04/20 07:45:12;;;;;;;11.73;2.45;;;;;;;29.78;32.30;100819.25;7393568;19;20026;-59
2023/04/20 07:47:39;;;;;;;3.03;2.33;;;;;;;29.87;31.83;100810.75;7391144;19;20013;-58
2023/04/20 07:50:06;;;;;;;3.00;1.85;;;;;;;30.12;31.77;100807.84;7396451;19;20035;-59
2023/04/20 07:52:32;;;;;;;10.82;1.85;;;;;;;30.12;31.01;100819.34;7392510;19;20527;-59
2023/04/20 07:54:58;;;;;;;2.60;1.95;;;;;;;30.21;30.60;100815.78;7396465;19;20017;-59
2023/04/20 07:57:25;;;;;;;3.05;1.77;;;;;;;30.38;30.40;100806.44;7393346;19;20074;-59
2023/04/20 07:59:51;;;;;;;3.15;2.22;;;;;;;30.51;30.29;100808.97;7396713;19;20011;-59
2023/04/20 08:02:17;;;;;;;4.07;1.35;;;;;;;30.61;29.74;100807.69;7391931;19;20021;-59
2023/04/20 08:04:45;;;;;;;4.82;2.92;;;;;;;30.82;29.10;100804.34;7394196;19;20015;-59
2023/04/20 08:07:11;;;;;;;3.05;2.72;;;;;;;30.61;29.47;100807.69;7393627;19;20025;-59
2023/04/20 08:09:37;;;;;;;1.52;1.48;;;;;;;30.97;29.04;100815.66;7396031;19;20025;-59
2023/04/20 08:12:04;;;;;;;2.10;1.92;;;;;;;30.96;28.67;100808.41;7392986;19;20066;-59
2023/04/20 08:14:30;;;;;;;4.40;2.55;;;;;;;31.09;27.92;100799.41;7401009;19;20015;-59
2023/04/20 08:16:56;;;;;;;7.43;1.40;;;;;;;31.13;28.09;100811.22;7401043;19;20014;-59
2023/04/20 08:19:22;;;;;;;6.50;1.52;;;;;;;31.40;27.36;100809.09;7401629;19;20354;-59
2023/04/20 08:21:50;;;;;;;3.65;2.95;;;;;;;31.78;27.18;100808.50;7400593;19;20010;-59
2023/04/20 08:24:16;;;;;;;1.80;1.27;;;;;;;31.95;26.31;100807.66;7401060;19;20011;-59
2023/04/20 08:26:42;;;;;;;4.43;2.25;;;;;;;31.63;26.20;100805.88;7399826;19;20025;-59
2023/04/20 08:29:08;;;;;;;2.95;1.83;;;;;;;31.65;26.30;100808.13;7401533;19;20322;-59
2023/04/20 08:31:35;;;;;;;7.35;2.17;;;;;;;30.06;27.36;100809.44;7399124;19;20014;-59
2023/04/20 08:34:01;;;;;;;0.85;0.85;;;;;;;31.81;26.47;100809.41;7400095;19;20010;-60
2023/04/20 08:36:28;;;;;;;3.67;1.77;;;;;;;32.12;25.83;100805.41;7400559;19;20478;-60
2023/04/20 08:39:06;;;;;;;12.85;1.35;;;;;;;32.44;25.83;100810.00;7401192;19;20364;-59
2023/04/20 08:41:32;;;;;;;1.10;1.02;;;;;;;32.48;25.40;100810.31;7399985;19;20541;-60
2023/04/20 08:43:58;;;;;;;6.65;2.22;;;;;;;32.83;25.53;100804.97;7398398;19;20503;-60
2023/04/20 08:46:25;;;;;;;11.38;1.45;;;;;;;32.39;25.21;100808.16;7398743;19;20015;-60
2023/04/20 08:48:54;;;;;;;1.40;0.95;;;;;;;32.88;25.10;100806.75;7400834;19;20483;-60
2023/04/20 08:51:21;;;;;;;1.50;0.68;;;;;;;33.43;24.69;100799.94;7398745;19;20078;-60
2023/04/20 08:53:47;;;;;;;1.73;1.23;;;;;;;33.81;24.41;100802.66;7400512;19;20900;-60
2023/04/20 08:56:13;;;;;;;4.43;2.05;;;;;;;33.78;24.21;100800.25;7399768;19;20007;-60
2023/04/20 08:58:41;;;;;;;2.63;1.60;;;;;;;34.05;24.01;100795.69;7399540;19;20445;-60
2023/04/20 09:01:11;;;;;;;3.58;1.30;;;;;;;34.09;23.43;100790.19;7398810;19;20075;-60
2023/04/20 09:03:39;;;;;;;0.95;0.95;;;;;;;34.32;23.09;100796.09;7399955;19;20031;-59
2023/04/20 09:06:16;;;;;;;2.95;1.45;;;;;;;34.14;23.36;100797.00;7400047;19;20018;-59
2023/04/20 09:08:43;;;;;;;2.22;1.30;;;;;;;34.34;23.28;100802.03;7401100;19;19999;-59
2023/04/20 09:11:26;;;;;;;1.88;1.20;;;;;;;34.26;23.30;100789.88;7398219;19;20367;-59
2023/04/20 09:14:14;;;;;;;1.65;0.95;;;;;;;33.84;23.55;100792.75;7399134;19;20049;-59
2023/04/20 09:17:01;;;;;;;6.43;1.75;;;;;;;28.39;26.97;100804.69;7398211;19;20385;-59
2023/04/20 09:19:29;;;;;;;1.35;1.08;;;;;;;24.43;33.80;100802.16;7401891;19;20464;-59
2023/04/20 09:21:57;;;;;;;17.08;0.95;;;;;;;33.23;25.05;100792.72;7399167;19;20017;-59
2023/04/20 09:24:30;;;;;;;2.67;1.42;;;;;;;35.04;22.85;100782.06;7398516;19;20011;-59
2023/04/20 09:26:57;;;;;;;2.80;1.20;;;;;;;35.47;22.07;100774.66;7398577;19;20507;-59
2023/04/20 09:29:26;;;;;;;2.50;1.17;;;;;;;35.83;21.99;100769.59;7401652;19;20011;-59
2023/04/20 09:31:53;;;;;;;10.00;2.28;;;;;;;35.60;22.20;100774.03;7396516;19;20015;-59
2023/04/20 09:34:20;;;;;;;1.70;0.75;;;;;;;35.76;22.05;100769.22;7397558;19;20007;-59
2023/04/20 09:36:51;;;;;;;1.77;1.27;;;;;;;35.87;22.06;100767.69;7398325;19;20035;-59
2023/04/20 09:39:19;;;;;;;2.10;0.73;;;;;;;35.65;21.64;100770.00;7400436;19;20011;-60
2023/04/20 09:41:46;;;;;;;1.13;0.80;;;;;;;35.71;21.60;100770.34;7397624;19;20046;-59
2023/04/20 09:44:13;;;;;;;1.35;1.25;;;;;;;35.51;21.63;100759.69;7396602;19;20040;-60
2023/04/20 09:46:41;;;;;;;0.95;0.40;;;;;;;35.76;21.71;100769.22;7395877;19;20014;-59
2023/04/20 09:49:09;;;;;;;1.38;1.15;;;;;;;35.78;21.56;100766.44;7398044;19;20019;-60
2023/04/20 09:51:40;;;;;;;4.03;0.93;;;;;;;36.03;21.61;100757.09;7397002;19;20041;-59
2023/04/20 09:54:06;;;;;;;;;;;;;;;36.38;21.07;100762.78;7400531;19;20362;-60
2023/04/20 09:56:34;;;;;;;2.33;1.05;;;;;;;36.21;20.41;100754.53;7397942;19;20360;-60
2023/04/20 09:59:02;;;;;;;2.00;1.08;;;;;;;36.18;20.64;100747.84;7398980;19;20013;-60
2023/04/20 10:01:31;;;;;;;1.38;0.40;;;;;;;36.12;20.47;100746.72;7397148;19;20007;-60
2023/04/20 10:03:58;;;;;;;7.22;0.70;;;;;;;36.40;20.81;100745.47;7397480;19;20408;-60
2023/04/20 10:06:26;;;;;;;1.08;0.55;;;;;;;36.55;20.88;100747.06;7398163;19;20007;-60
2023/04/20 10:08:53;;;;;;;5.45;0.88;;;;;;;36.71;20.11;100742.94;7398950;19;20109;-61
2023/04/20 10:11:28;;;;;;;0.65;0.57;;;;;;;36.54;20.53;100745.56;7396583;19;20006;-61
2023/04/20 10:13:59;;;;;;;1.80;0.80;;;;;;;36.08;20.77;100740.69;7398657;19;20381;-61
2023/04/20 10:16:25;;;;;;;4.05;1.27;;;;;;;36.52;20.17;100731.69;7397920;19;20017;-61
2023/04/20 10:19:01;;;;;;;1.00;0.98;;;;;;;36.47;20.25;100727.06;7396778;19;20031;-61
2023/04/20 10:21:31;;;;;;;4.82;1.05;;;;;;;36.40;20.62;100725.16;7397094;19;20015;-61
2023/04/20 10:24:01;;;;;;;0.32;0.32;;;;;;;36.12;21.05;100714.81;7396858;19;20491;-60
2023/04/20 10:26:38;;;;;;;6.38;0.52;;;;;;;36.37;21.06;100715.59;7396488;19;20014;-61
2023/04/20 10:29:07;;;;;;;4.45;1.10;;;;;;;36.20;20.81;100700.78;7399441;19;20455;-61
2023/04/20 10:31:38;;;;;;;0.40;0.35;;;;;;;36.20;21.02;100704.44;7394615;19;20051;-61
2023/04/20 10:34:06;;;;;;;1.55;0.70;;;;;;;36.53;20.78;100709.22;7395559;19;20413;-61
2023/04/20 10:36:35;;;;;;;1.40;0.70;;;;;;;36.57;20.59;100709.44;7393278;19;20390;-61
2023/04/20 10:39:15;;;;;;;7.97;1.13;;;;;;;36.81;19.93;100707.91;7396984;19;20010;-61
2023/04/20 10:42:02;;;;;;;0.45;0.38;;;;;;;36.32;20.58;100707.31;7395077;19;20018;-62
2023/04/20 10:44:29;;;;;;;3.22;1.40;;;;;;;36.24;20.37;100707.56;7394902;19;20370;-61
2023/04/20 10:46:56;;;;;;;0.63;0.52;;;;;;;36.31;20.33;100697.06;7395246;19;20381;-61
2023/04/20 10:49:27;;;;;;;3.75;0.68;;;;;;;36.56;20.31;100696.34;7397376;19;20340;-61
2023/04/20 10:51:54;;;;;;;4.88;0.63;;;;;;;36.57;19.87;100689.88;7395556;19;20022;-61
2023/04/20 10:54:21;;;;;;;5.22;0.90;;;;;;;36.70;19.79;100689.19;7398875;19;20478;-61
2023/04/20 10:56:52;;;;;;;1.85;0.95;;;;;;;36.87;19.64;100691.56;7396402;19;20045;-61
2023/04/20 10:59:20;;;;;;;1.05;0.30;;;;;;;37.05;19.76;100683.91;7398473;19;20024;-61
2023/04/20 11:01:48;;;;;;;0.57;0.40;;;;;;;37.34;19.56;100679.59;7395385;19;20023;-61
2023/04/20 11:04:14;;;;;;;2.25;0.85;;;;;;;37.46;18.77;100674.44;7395195;19;20014;-61
2023/04/20 11:06:46;;;;;;;0.30;0.30;;;;;;;37.72;18.63;100667.09;7395856;19;20015;-61
2023/04/20 11:09:25;;;;;;;7.47;0.77;;;;;;;38.02;18.93;100665.72;7398425;19;20494;-61
2023/04/20 11:12:05;;;;;;;2.35;0.55;;;;;;;37.78;19.27;100676.09;7395201;19;20074;-61
2023/04/20 11:14:37;;;;;;;0.20;0.20;;;;;;;38.04;19.07;100680.38;7395832;19;20018;-61
2023/04/20 11:17:04;;;;;;;1.58;0.57;;;;;;;37.97;18.61;100679.31;7394296;19;20025;-58
2023/04/20 11:19:33;;;;;;;0.38;0.30;;;;;;;37.74;18.96;100675.91;7398140;19;20010;-59
2023/04/20 11:22:00;;;;;;;0.30;0.25;;;;;;;31.66;22.76;100683.69;7394162;19;20397;-58
2023/04/20 11:24:28;;;;;;;1.17;0.50;;;;;;;33.56;21.28;100672.34;7395171;19;20018;-58
2023/04/20 11:26:54;;;;;;;0.68;0.30;;;;;;;33.13;21.46;100667.84;7394590;19;20021;-58